Time;durP1;ratioP1;P1;durP2;ratioP2;P2;SDS_P1;SDS_P2;PMS_P1;PMS_P2;Temp;Humidity;BMP_temperature;BMP_pressure;BME280_temperature;BME280_humidity;BME280_pressure;Samples;Min_cycle;Max_cycle;Signal;HPM_P1;HPM_P2
2022/04/27 00:02:15;;;;;;;11.18;7.95;;;14.90;99.90;;;;;;5116612;27;20110;-87
2022/04/27 00:04:41;;;;;;;11.30;7.75;;;14.90;99.90;;;;;;5130169;27;20015;-87
2022/04/27 00:07:07;;;;;;;12.07;7.30;;;14.80;99.90;;;;;;5133953;27;20042;-84
2022/04/27 00:09:33;;;;;;;11.32;7.50;;;14.90;99.90;;;;;;5129679;27;20030;-86
2022/04/27 00:12:01;;;;;;;9.02;6.38;;;14.80;99.90;;;;;;5129758;27;20172;-87
2022/04/27 00:14:31;;;;;;;10.32;6.22;;;14.80;99.90;;;;;;5133374;27;20096;-85
2022/04/27 00:16:57;;;;;;;9.73;6.13;;;14.80;99.90;;;;;;5131968;27;20413;-86
2022/04/27 00:19:27;;;;;;;11.63;6.30;;;14.80;99.90;;;;;;5133400;27;20042;-86
2022/04/27 00:21:53;;;;;;;8.40;6.13;;;14.80;99.90;;;;;;5131562;27;20405;-87
2022/04/27 00:24:18;;;;;;;10.90;6.60;;;14.70;99.90;;;;;;5132702;27;20076;-87
2022/04/27 00:26:45;;;;;;;11.63;7.10;;;14.70;99.90;;;;;;5132809;27;20490;-85
2022/04/27 00:29:11;;;;;;;8.50;6.50;;;14.70;99.90;;;;;;5127974;27;20295;-86
2022/04/27 00:31:36;;;;;;;9.07;6.57;;;14.60;99.90;;;;;;5115433;27;20117;-85
2022/04/27 00:34:03;;;;;;;9.82;6.32;;;14.50;99.90;;;;;;5133083;27;20099;-85
2022/04/27 00:36:31;;;;;;;10.07;6.32;;;14.60;99.90;;;;;;5121554;27;20078;-87
2022/04/27 00:38:57;;;;;;;9.85;6.57;;;14.50;99.90;;;;;;5126516;27;20023;-85
2022/04/27 00:41:23;;;;;;;11.65;7.43;;;14.60;99.90;;;;;;5131263;27;20019;-86
2022/04/27 00:43:49;;;;;;;11.80;8.75;;;14.50;99.90;;;;;;5132118;27;20089;-85
2022/04/27 00:46:14;;;;;;;11.25;8.45;;;14.20;99.90;;;;;;5131888;27;20285;-87
2022/04/27 00:48:41;;;;;;;11.57;8.25;;;14.00;99.90;;;;;;5132741;27;20031;-88
2022/04/27 00:51:10;;;;;;;12.25;9.57;;;13.90;99.90;;;;;;5124165;27;20035;-88
2022/04/27 00:53:37;;;;;;;11.88;9.02;;;13.60;99.90;;;;;;5123666;27;20023;-88
2022/04/27 00:56:03;;;;;;;10.00;7.93;;;13.50;99.90;;;;;;5131702;27;20035;-88
2022/04/27 00:58:29;;;;;;;12.07;9.43;;;13.40;99.90;;;;;;5115155;27;20029;-85
2022/04/27 01:00:55;;;;;;;12.60;8.70;;;13.50;99.90;;;;;;5131817;27;20034;-86
2022/04/27 01:03:24;;;;;;;12.48;8.98;;;13.40;99.90;;;;;;5118162;27;20390;-88
2022/04/27 01:05:54;;;;;;;11.35;8.80;;;13.50;99.90;;;;;;5125243;27;20042;-87
2022/04/27 01:08:21;;;;;;;11.70;9.25;;;13.50;99.90;;;;;;5131646;27;20405;-87
2022/04/27 01:10:48;;;;;;;12.23;9.13;;;13.50;99.90;;;;;;5131325;27;20035;-87
2022/04/27 01:13:14;;;;;;;13.05;9.07;;;13.40;99.90;;;;;;5128640;27;20501;-87
2022/04/27 01:15:41;;;;;;;11.57;9.35;;;13.40;99.90;;;;;;5131533;27;20074;-88
2022/04/27 01:18:09;;;;;;;14.52;9.65;;;13.40;99.90;;;;;;5131455;27;20031;-87
2022/04/27 01:20:38;;;;;;;15.68;9.77;;;13.30;99.90;;;;;;5131104;27;20055;-88
2022/04/27 01:23:06;;;;;;;13.23;9.23;;;13.40;99.90;;;;;;5131440;27;20039;-87
2022/04/27 01:26:08;;;;;;;11.57;9.05;;;13.30;99.90;;;;;;5131697;27;20566;-87
2022/04/27 01:28:36;;;;;;;13.05;8.93;;;13.30;99.90;;;;;;5031525;28;20531;-87
2022/04/27 01:31:11;;;;;;;13.90;9.43;;;13.30;99.90;;;;;;5039576;28;20036;-87
2022/04/27 01:33:38;;;;;;;11.95;8.75;;;13.20;99.90;;;;;;5043826;28;20037;-87
2022/04/27 01:36:09;;;;;;;15.07;9.27;;;13.30;99.90;;;;;;5043485;28;20059;-85
2022/04/27 01:38:42;;;;;;;14.52;9.02;;;13.20;99.90;;;;;;5045354;28;20037;-87
2022/04/27 01:41:08;;;;;;;13.20;10.55;;;13.30;99.90;;;;;;5036312;28;20574;-87
2022/04/27 01:43:35;;;;;;;14.45;9.75;;;13.20;99.90;;;;;;5031307;28;20029;-88
2022/04/27 01:46:01;;;;;;;12.52;9.10;;;13.10;99.90;;;;;;5033886;28;20543;-87
2022/04/27 01:48:27;;;;;;;12.43;9.30;;;13.10;99.90;;;;;;5036826;28;20030;-88
2022/04/27 01:50:54;;;;;;;13.65;9.18;;;13.10;99.90;;;;;;5040759;28;20083;-86
2022/04/27 01:56:06;;;;;;;12.57;8.65;;;13.00;99.90;;;;;;5047864;28;20586;-86
2022/04/27 01:58:32;;;;;;;13.73;9.43;;;13.10;99.90;;;;;;5031492;28;20033;-88
2022/04/27 02:00:58;;;;;;;13.68;9.40;;;13.10;99.90;;;;;;5038972;28;20087;-88
2022/04/27 02:03:24;;;;;;;12.27;9.68;;;13.00;99.90;;;;;;5120494;28;20540;-87
2022/04/27 02:05:52;;;;;;;11.48;9.40;;;13.00;99.90;;;;;;5131211;27;20023;-87
2022/04/27 02:08:18;;;;;;;12.88;9.25;;;12.90;99.90;;;;;;5130930;27;20031;-87
2022/04/27 02:10:44;;;;;;;15.15;9.68;;;12.90;99.90;;;;;;5130834;27;20027;-87
2022/04/27 02:13:11;;;;;;;13.80;9.45;;;12.90;99.90;;;;;;5127396;28;20485;-85
2022/04/27 02:15:37;;;;;;;12.15;9.40;;;12.90;99.90;;;;;;5119482;27;20027;-87
2022/04/27 02:18:03;;;;;;;14.02;9.25;;;12.90;99.90;;;;;;5126242;28;20101;-88
2022/04/27 02:20:29;;;;;;;12.52;8.80;;;12.80;99.90;;;;;;5131235;27;20039;-87
2022/04/27 02:22:56;;;;;;;11.18;8.55;;;12.80;99.90;;;;;;5131894;27;20534;-87
2022/04/27 02:25:22;;;;;;;11.27;8.65;;;12.90;99.90;;;;;;5113399;28;20391;-88
2022/04/27 02:27:52;;;;;;;11.57;7.80;;;12.90;99.90;;;;;;5131257;27;20015;-85
2022/04/27 02:30:18;;;;;;;11.50;8.27;;;12.80;99.90;;;;;;5131290;27;20039;-87
2022/04/27 02:32:48;;;;;;;11.90;7.88;;;12.80;99.90;;;;;;5127039;27;20019;-87
2022/04/27 02:35:15;;;;;;;11.43;8.00;;;12.80;99.90;;;;;;5119342;28;20130;-87
2022/04/27 02:37:41;;;;;;;13.40;7.78;;;12.80;99.90;;;;;;5114682;28;20117;-87
2022/04/27 02:40:10;;;;;;;10.45;7.85;;;12.80;99.90;;;;;;5132128;27;20023;-87
2022/04/27 02:42:36;;;;;;;10.32;6.75;;;12.70;99.90;;;;;;5133706;27;20038;-87
2022/04/27 02:45:03;;;;;;;11.02;6.50;;;12.80;99.90;;;;;;5134690;27;20160;-87
2022/04/27 02:47:29;;;;;;;10.77;6.57;;;12.90;99.90;;;;;;5134763;27;20110;-87
2022/04/27 02:52:38;;;;;;;8.05;5.50;;;13.10;99.90;;;;;;5134784;27;20034;-88
2022/04/27 02:55:05;;;;;;;8.65;5.35;;;13.20;99.90;;;;;;5119150;27;20027;-87
2022/04/27 02:57:30;;;;;;;8.75;5.07;;;13.30;99.90;;;;;;5133496;27;20042;-87
2022/04/27 02:59:56;;;;;;;8.25;4.63;;;13.30;99.90;;;;;;5134921;27;20019;-87
2022/04/27 03:02:22;;;;;;;7.97;5.28;;;13.40;99.90;;;;;;5134553;27;20446;-88
2022/04/27 03:04:48;;;;;;;8.93;4.82;;;13.40;99.90;;;;;;5134574;27;20409;-87
2022/04/27 03:07:13;;;;;;;6.70;4.65;;;13.40;99.90;;;;;;5134847;27;20144;-87
2022/04/27 03:09:39;;;;;;;7.50;4.40;;;13.40;99.90;;;;;;5134512;27;20105;-88
2022/04/27 03:12:05;;;;;;;7.47;4.25;;;13.50;99.90;;;;;;5127180;27;20032;-88
2022/04/27 03:14:31;;;;;;;7.10;4.30;;;13.50;99.90;;;;;;5122846;27;20019;-87
2022/04/27 03:16:57;;;;;;;7.70;4.75;;;13.60;99.90;;;;;;5115850;27;20135;-88
2022/04/27 03:19:24;;;;;;;8.38;4.30;;;13.60;99.90;;;;;;5134346;27;20039;-88
2022/04/27 03:21:53;;;;;;;6.85;4.25;;;13.70;99.90;;;;;;5135081;27;20079;-88
2022/04/27 03:24:18;;;;;;;8.18;4.60;;;13.70;99.90;;;;;;5133513;27;20023;-87
2022/04/27 03:26:44;;;;;;;7.57;4.60;;;13.70;99.90;;;;;;5134111;27;20027;-87
2022/04/27 03:29:10;;;;;;;8.35;4.80;;;13.70;99.90;;;;;;5129767;27;20027;-87
2022/04/27 03:31:36;;;;;;;6.90;4.30;;;13.60;99.90;;;;;;5133766;27;20031;-88
2022/04/27 03:34:02;;;;;;;6.43;4.40;;;13.60;99.90;;;;;;5119775;27;20027;-87
2022/04/27 03:36:27;;;;;;;6.50;4.00;;;13.70;99.90;;;;;;5132208;27;20037;-87
2022/04/27 03:38:53;;;;;;;6.18;4.07;;;13.80;99.90;;;;;;5133104;27;20102;-87
2022/04/27 03:41:22;;;;;;;8.07;4.60;;;13.80;99.90;;;;;;5133681;27;20015;-88
2022/04/27 03:43:49;;;;;;;6.90;4.43;;;13.70;99.90;;;;;;5133576;27;20031;-87
2022/04/27 03:46:15;;;;;;;5.95;4.20;;;13.70;99.90;;;;;;5134375;27;20023;-88
2022/04/27 03:48:41;;;;;;;8.63;4.40;;;13.80;99.80;;;;;;5121512;27;20019;-87
2022/04/27 03:51:09;;;;;;;6.93;4.30;;;13.70;99.90;;;;;;5121914;27;20482;-87
2022/04/27 03:53:34;;;;;;;7.32;4.47;;;13.70;99.90;;;;;;5123923;27;20113;-88
2022/04/27 03:56:00;;;;;;;6.78;4.25;;;13.70;99.90;;;;;;5133457;27;20039;-87
2022/04/27 03:58:26;;;;;;;7.20;4.20;;;13.70;99.90;;;;;;5133477;27;20016;-87
2022/04/27 04:00:52;;;;;;;6.50;4.10;;;13.60;99.90;;;;;;5133834;27;20038;-87
2022/04/27 04:03:18;;;;;;;8.10;4.05;;;13.60;99.90;;;;;;5133265;27;20303;-87
2022/04/27 04:05:44;;;;;;;5.70;4.13;;;13.60;99.90;;;;;;5133493;27;20031;-87
2022/04/27 04:08:10;;;;;;;6.28;4.28;;;13.60;99.90;;;;;;5132890;27;20023;-87
2022/04/27 04:10:36;;;;;;;8.20;4.30;;;13.60;99.90;;;;;;5115245;27;20502;-87
2022/04/27 04:13:02;;;;;;;8.95;4.82;;;13.60;99.90;;;;;;5118616;27;20024;-86
2022/04/27 04:15:28;;;;;;;8.52;4.38;;;13.60;99.90;;;;;;5121371;27;20540;-86
2022/04/27 04:17:54;;;;;;;6.38;4.35;;;13.60;99.90;;;;;;5117034;27;20092;-86
2022/04/27 04:20:23;;;;;;;6.25;3.97;;;13.50;99.90;;;;;;5121717;27;20039;-87
2022/04/27 04:22:49;;;;;;;8.75;4.45;;;13.50;99.90;;;;;;5132506;27;20035;-87
2022/04/27 04:30:44;;;;;;;6.05;4.30;;;13.70;99.90;;;;;;5120936;27;20440;-87
2022/04/27 04:33:10;;;;;;;7.00;4.35;;;13.70;99.90;;;;;;5128697;27;20439;-86
2022/04/27 04:35:37;;;;;;;6.53;4.50;;;13.60;99.90;;;;;;5132598;27;20042;-86
2022/04/27 04:38:06;;;;;;;7.57;4.47;;;13.60;99.90;;;;;;5132522;27;20031;-87
2022/04/27 04:40:33;;;;;;;7.13;4.50;;;13.60;99.90;;;;;;5132929;27;20034;-87
2022/04/27 04:42:59;;;;;;;7.13;4.53;;;13.60;99.90;;;;;;5132914;27;20450;-87
2022/04/27 04:45:25;;;;;;;7.82;4.63;;;13.50;99.90;;;;;;5132429;27;20484;-87
2022/04/27 04:47:51;;;;;;;7.65;4.32;;;13.50;99.90;;;;;;5132466;27;20020;-87
2022/04/27 04:50:17;;;;;;;7.47;4.22;;;13.50;99.90;;;;;;5132105;27;20015;-86
2022/04/27 04:52:45;;;;;;;8.60;4.68;;;13.50;99.90;;;;;;5116377;27;20034;-87
2022/04/27 04:55:12;;;;;;;9.93;4.70;;;13.50;99.90;;;;;;5128850;27;20015;-85
2022/04/27 04:57:37;;;;;;;7.93;4.93;;;13.50;99.90;;;;;;5132278;27;20031;-87
2022/04/27 05:00:05;;;;;;;7.43;4.55;;;13.60;99.90;;;;;;5132401;27;20026;-87
2022/04/27 05:02:32;;;;;;;7.75;4.45;;;13.60;99.90;;;;;;5132271;27;20183;-87
2022/04/27 05:04:58;;;;;;;6.97;4.50;;;13.60;99.90;;;;;;5131553;27;20531;-87
2022/04/27 05:07:24;;;;;;;7.30;4.72;;;13.60;99.90;;;;;;5132241;27;20485;-87
2022/04/27 05:09:53;;;;;;;9.85;5.10;;;13.60;99.90;;;;;;5119228;27;20024;-87
2022/04/27 05:12:18;;;;;;;5.97;4.53;;;13.60;99.90;;;;;;5129315;27;20049;-86
2022/04/27 05:14:44;;;;;;;6.78;4.45;;;13.60;99.90;;;;;;5127834;27;20603;-86
2022/04/27 05:17:10;;;;;;;9.05;4.22;;;13.60;99.90;;;;;;5119471;27;20045;-86
2022/04/27 05:19:37;;;;;;;10.77;4.85;;;13.60;99.90;;;;;;5132161;27;20046;-87
2022/04/27 05:22:03;;;;;;;7.18;5.00;;;13.60;99.90;;;;;;5132247;27;20125;-85
2022/04/27 05:24:29;;;;;;;7.55;4.50;;;13.70;99.90;;;;;;5117401;27;20497;-84
2022/04/27 05:26:55;;;;;;;10.05;4.85;;;13.60;99.90;;;;;;5125735;28;20481;-81
2022/04/27 05:32:06;;;;;;;;;;;13.70;99.90;;;;;;5118854;28;20084;-83
2022/04/27 05:34:33;;;;;;;8.18;4.93;;;13.70;99.90;;;;;;5131401;27;19939;-85
2022/04/27 05:37:00;;;;;;;6.88;4.53;;;13.80;99.90;;;;;;5132250;27;20541;-83
2022/04/27 05:39:25;;;;;;;8.63;5.18;;;13.70;99.90;;;;;;5131706;27;20034;-84
2022/04/27 05:41:53;;;;;;;6.47;4.25;;;13.80;99.90;;;;;;5131699;27;20019;-83
2022/04/27 05:44:23;;;;;;;7.47;4.50;;;13.80;99.90;;;;;;5129164;27;20069;-84
2022/04/27 05:46:53;;;;;;;8.90;4.88;;;13.90;99.90;;;;;;5131960;27;20039;-83
2022/04/27 05:49:22;;;;;;;6.45;4.70;;;13.90;99.90;;;;;;5115180;27;20037;-83
2022/04/27 05:51:48;;;;;;;7.20;4.25;;;13.90;99.90;;;;;;5121253;28;20054;-83
2022/04/27 05:54:15;;;;;;;9.68;4.57;;;13.90;99.90;;;;;;5123304;28;20482;-83
2022/04/27 05:56:42;;;;;;;7.95;4.32;;;13.90;99.90;;;;;;5128191;27;20035;-83
2022/04/27 05:59:09;;;;;;;9.63;4.40;;;14.00;99.90;;;;;;5118983;28;20023;-82
2022/04/27 06:01:35;;;;;;;8.93;4.65;;;14.00;99.90;;;;;;5126278;27;20092;-82
2022/04/27 06:04:01;;;;;;;6.85;4.50;;;14.10;99.90;;;;;;5130372;27;20561;-82
2022/04/27 06:06:27;;;;;;;9.48;4.85;;;14.10;99.90;;;;;;5130531;28;20031;-84
2022/04/27 06:08:52;;;;;;;9.38;4.50;;;14.20;99.90;;;;;;5120120;28;20022;-80
2022/04/27 06:11:22;;;;;;;9.55;4.75;;;14.20;99.90;;;;;;5129551;28;20031;-81
2022/04/27 06:13:48;;;;;;;7.53;4.43;;;14.20;99.90;;;;;;5119244;27;20034;-80
2022/04/27 06:16:14;;;;;;;7.32;4.35;;;14.30;99.90;;;;;;5131814;27;20039;-80
2022/04/27 06:18:41;;;;;;;7.07;4.68;;;14.30;99.90;;;;;;5134782;27;20038;-80
2022/04/27 06:21:08;;;;;;;7.90;4.85;;;14.30;99.90;;;;;;5134993;27;20111;-73
2022/04/27 06:23:35;;;;;;;7.32;4.53;;;14.40;99.90;;;;;;5135936;27;20027;-72
2022/04/27 06:26:00;;;;;;;9.70;4.82;;;14.40;99.90;;;;;;5135380;27;20031;-72
2022/04/27 06:28:26;;;;;;;8.73;4.53;;;14.50;99.90;;;;;;5134619;27;20050;-73
2022/04/27 06:30:52;;;;;;;10.88;4.72;;;14.50;99.90;;;;;;5135394;27;20076;-73
2022/04/27 06:33:19;;;;;;;7.53;4.80;;;14.60;99.90;;;;;;5134486;27;20023;-74
2022/04/27 06:35:44;;;;;;;8.27;5.00;;;14.60;99.90;;;;;;5134874;27;20035;-73
2022/04/27 06:38:10;;;;;;;7.32;4.30;;;14.70;99.90;;;;;;5134690;27;20045;-73
2022/04/27 06:40:36;;;;;;;10.65;5.93;;;14.70;99.90;;;;;;5135152;27;20027;-73
2022/04/27 06:43:02;;;;;;;8.85;4.88;;;14.70;99.90;;;;;;5135382;27;20489;-74
2022/04/27 06:45:28;;;;;;;8.68;5.00;;;14.80;99.90;;;;;;5127930;27;20041;-73
2022/04/27 06:47:57;;;;;;;7.60;4.50;;;14.90;99.90;;;;;;5129104;27;20489;-73
2022/04/27 06:50:23;;;;;;;8.25;4.72;;;15.00;99.90;;;;;;5123953;27;20034;-73
2022/04/27 06:52:48;;;;;;;7.55;5.03;;;15.10;99.90;;;;;;5122609;27;20027;-73
2022/04/27 06:55:16;;;;;;;7.75;5.30;;;15.20;99.90;;;;;;5123781;27;20537;-73
2022/04/27 06:57:44;;;;;;;13.15;4.97;;;15.20;99.90;;;;;;5121014;27;20476;-74
2022/04/27 07:00:12;;;;;;;11.02;5.40;;;15.20;99.90;;;;;;5129426;27;20035;-73
2022/04/27 07:02:40;;;;;;;8.55;4.97;;;15.30;99.90;;;;;;5125211;27;20026;-74
2022/04/27 07:05:09;;;;;;;10.23;4.50;;;15.30;99.30;;;;;;5120908;27;20066;-73
2022/04/27 07:07:35;;;;;;;10.10;4.80;;;15.40;99.60;;;;;;5130016;27;20088;-73
2022/04/27 07:10:01;;;;;;;7.75;4.55;;;15.40;99.40;;;;;;5127727;27;20038;-75
2022/04/27 07:12:27;;;;;;;10.68;4.97;;;15.50;99.30;;;;;;5131998;27;20069;-75
2022/04/27 07:14:53;;;;;;;9.65;4.93;;;15.60;99.40;;;;;;5130557;27;20117;-75
2022/04/27 07:17:18;;;;;;;9.35;4.85;;;15.60;99.30;;;;;;5132691;27;20039;-75
2022/04/27 07:19:44;;;;;;;11.15;5.15;;;15.70;99.00;;;;;;5133505;27;20317;-74
2022/04/27 07:22:11;;;;;;;12.13;4.53;;;15.80;99.10;;;;;;5128725;27;20033;-74
2022/04/27 07:24:37;;;;;;;8.00;4.43;;;15.80;98.80;;;;;;5132822;27;20378;-74
2022/04/27 07:27:04;;;;;;;9.73;4.45;;;15.90;98.90;;;;;;5126658;27;20030;-74
2022/04/27 07:29:30;;;;;;;8.80;4.43;;;16.00;98.60;;;;;;5128498;27;20034;-74
2022/04/27 07:31:59;;;;;;;8.48;4.38;;;16.10;97.30;;;;;;5132674;27;20824;-74
2022/04/27 07:34:24;;;;;;;9.30;4.35;;;16.20;97.40;;;;;;5133533;27;20055;-74
2022/04/27 07:36:50;;;;;;;9.05;4.15;;;16.20;97.60;;;;;;5119466;27;20071;-74
2022/04/27 07:39:16;;;;;;;7.38;4.07;;;16.30;97.70;;;;;;5129080;27;20027;-74
2022/04/27 07:41:45;;;;;;;8.68;4.20;;;16.30;97.70;;;;;;5125922;27;20027;-75
2022/04/27 07:44:11;;;;;;;8.07;3.88;;;16.40;97.50;;;;;;5132213;27;20031;-74
2022/04/27 07:46:37;;;;;;;6.35;4.20;;;16.50;97.10;;;;;;5118777;27;20034;-74
2022/04/27 07:49:02;;;;;;;7.55;4.18;;;16.60;96.80;;;;;;5133250;27;20035;-74
2022/04/27 07:51:28;;;;;;;8.48;4.40;;;16.70;96.60;;;;;;5130524;27;20398;-75
2022/04/27 07:53:54;;;;;;;8.07;3.95;;;16.80;96.80;;;;;;5126672;27;20028;-75
2022/04/27 07:56:23;;;;;;;8.35;4.38;;;16.90;95.90;;;;;;5121738;27;20047;-72
2022/04/27 07:58:48;;;;;;;7.40;3.90;;;17.00;96.30;;;;;;5131351;27;20116;-74
2022/04/27 08:01:14;;;;;;;7.25;3.67;;;17.00;95.80;;;;;;5127182;27;20039;-74
2022/04/27 08:03:40;;;;;;;8.52;3.75;;;17.10;94.60;;;;;;5124535;27;20024;-74
2022/04/27 08:06:06;;;;;;;8.15;3.92;;;17.10;95.20;;;;;;5121946;27;20034;-74
2022/04/27 08:08:32;;;;;;;6.90;3.60;;;17.20;95.80;;;;;;5116018;27;20500;-73
2022/04/27 08:10:57;;;;;;;6.78;3.67;;;17.20;95.00;;;;;;5117297;27;20031;-74
2022/04/27 08:13:23;;;;;;;7.28;3.95;;;17.40;94.50;;;;;;5129989;27;20123;-74
2022/04/27 08:15:52;;;;;;;6.43;3.90;;;17.40;94.20;;;;;;5116303;27;20032;-74
2022/04/27 08:18:19;;;;;;;6.55;3.40;;;17.50;93.20;;;;;;5126467;27;20019;-74
2022/04/27 08:23:34;;;;;;;6.22;3.80;;;17.70;93.90;;;;;;5130253;27;20083;-74
2022/04/27 08:26:05;;;;;;;7.05;3.22;;;17.80;93.10;;;;;;5118523;27;20411;-74
2022/04/27 08:28:31;;;;;;;9.07;3.75;;;17.80;92.70;;;;;;5123703;27;20042;-75
2022/04/27 08:30:58;;;;;;;6.85;3.42;;;17.90;92.60;;;;;;5117962;27;20031;-75
2022/04/27 08:33:24;;;;;;;6.20;3.70;;;18.00;92.60;;;;;;5122476;27;20413;-75
2022/04/27 08:35:59;;;;;;;6.25;3.20;;;18.10;93.20;;;;;;5113535;27;20047;-74
2022/04/27 08:38:26;;;;;;;6.20;3.70;;;18.20;92.10;;;;;;5115183;27;20034;-74
2022/04/27 08:40:53;;;;;;;6.88;3.05;;;18.20;92.80;;;;;;5113083;27;20026;-74
2022/04/27 08:43:21;;;;;;;5.57;3.17;;;18.30;91.90;;;;;;5118682;27;20528;-74
2022/04/27 08:45:47;;;;;;;6.47;3.83;;;18.30;91.90;;;;;;5126879;27;20022;-74
2022/04/27 08:48:14;;;;;;;6.07;3.30;;;18.50;92.00;;;;;;5126893;27;20118;-74
2022/04/27 08:50:41;;;;;;;5.68;3.03;;;18.50;92.50;;;;;;5119833;27;20043;-74
2022/04/27 08:53:07;;;;;;;6.50;3.80;;;18.70;92.60;;;;;;5114189;27;20557;-74
2022/04/27 08:55:35;;;;;;;9.45;3.97;;;18.70;92.30;;;;;;5113026;27;20119;-74
2022/04/27 08:58:12;;;;;;;8.70;3.88;;;18.80;92.90;;;;;;5121487;27;20028;-74
2022/04/27 09:00:39;;;;;;;6.38;3.63;;;18.90;91.50;;;;;;5125330;27;20031;-74
2022/04/27 09:03:31;;;;;;;8.77;3.90;;;18.90;92.10;;;;;;5116849;27;20042;-74
2022/04/27 09:06:02;;;;;;;6.47;3.63;;;19.00;92.30;;;;;;5116570;27;20028;-74
2022/04/27 09:08:43;;;;;;;7.07;3.83;;;19.10;90.70;;;;;;5125239;27;20030;-74
2022/04/27 09:11:29;;;;;;;6.25;3.50;;;19.20;89.80;;;;;;5113258;27;20027;-75
2022/04/27 09:14:00;;;;;;;5.45;3.40;;;19.40;90.60;;;;;;5109350;28;20035;-74
2022/04/27 09:20:46;;;;;;;5.93;3.65;;;19.40;89.80;;;;;;5117585;27;20047;-75
2022/04/27 09:22:06;;;;;;;7.85;3.53;;;19.70;90.00;;;;;;5127310;27;20088;-76
2022/04/27 09:24:54;;;;;;;6.72;3.38;;;19.80;89.90;;;;;;5125224;27;20549;-75
2022/04/27 09:27:25;;;;;;;8.90;4.03;;;19.80;89.70;;;;;;5119249;27;20426;-75
2022/04/27 09:30:10;;;;;;;5.60;3.58;;;19.80;87.70;;;;;;5121084;28;20022;-75
2022/04/27 09:32:35;;;;;;;7.82;3.95;;;19.90;87.70;;;;;;5115434;28;20035;-75
2022/04/27 09:35:03;;;;;;;6.50;3.60;;;20.00;88.70;;;;;;5123611;27;20011;-75
2022/04/27 09:37:33;;;;;;;7.57;3.83;;;20.00;89.60;;;;;;5129383;27;20046;-75
2022/04/27 09:40:05;;;;;;;6.97;3.72;;;20.00;89.10;;;;;;5129222;28;20027;-75
2022/04/27 09:42:32;;;;;;;6.47;3.58;;;20.10;86.00;;;;;;5121649;28;20092;-75
2022/04/27 09:45:13;;;;;;;8.50;3.80;;;20.00;84.20;;;;;;5126591;27;20030;-75
2022/04/27 09:47:53;;;;;;;6.53;3.60;;;20.20;84.30;;;;;;5129856;27;20019;-75
2022/04/27 09:50:19;;;;;;;6.47;3.80;;;20.00;88.30;;;;;;5130901;27;20187;-75
2022/04/27 09:52:45;;;;;;;6.88;3.35;;;20.30;88.40;;;;;;5118924;27;20894;-75
2022/04/27 09:55:11;;;;;;;9.07;3.85;;;20.30;90.60;;;;;;5135183;27;20029;-75
2022/04/27 09:57:39;;;;;;;7.15;3.90;;;20.30;86.00;;;;;;5130698;27;20047;-75
2022/04/27 10:00:06;;;;;;;7.40;4.68;;;20.30;87.90;;;;;;5133424;27;20019;-75
2022/04/27 10:02:34;;;;;;;6.82;4.63;;;20.20;87.50;;;;;;5130290;27;20456;-75
2022/04/27 10:05:00;;;;;;;7.15;4.85;;;20.10;90.10;;;;;;5130976;27;20027;-74
2022/04/27 10:07:32;;;;;;;8.25;4.93;;;20.20;87.70;;;;;;5125713;27;20069;-74
2022/04/27 10:09:59;;;;;;;8.10;5.20;;;20.30;89.30;;;;;;5118050;27;20513;-75
2022/04/27 10:12:25;;;;;;;7.20;4.90;;;20.30;88.60;;;;;;5131857;27;20027;-74
2022/04/27 10:14:51;;;;;;;9.82;5.05;;;20.50;90.90;;;;;;5128985;27;20508;-79
2022/04/27 10:17:17;;;;;;;10.45;5.50;;;20.30;89.20;;;;;;5133509;27;20106;-76
2022/04/27 10:19:47;;;;;;;11.50;5.15;;;20.60;91.80;;;;;;5132347;27;20402;-77
2022/04/27 10:22:33;;;;;;;11.60;5.65;;;20.80;89.10;;;;;;5119035;27;20497;-76
2022/04/27 10:25:07;;;;;;;9.82;5.57;;;20.90;88.50;;;;;;5131877;27;20034;-75
2022/04/27 10:27:33;;;;;;;7.20;5.65;;;20.80;90.20;;;;;;5122814;27;20084;-75
2022/04/27 10:30:04;;;;;;;10.38;5.70;;;21.00;88.30;;;;;;5126662;27;20043;-74
2022/04/27 10:32:40;;;;;;;7.28;5.35;;;20.90;88.20;;;;;;5117519;27;20024;-74
2022/04/27 10:35:12;;;;;;;9.43;5.47;;;20.90;86.50;;;;;;5121482;27;20034;-73
2022/04/27 10:37:43;;;;;;;7.60;5.28;;;20.80;85.50;;;;;;5117160;27;20046;-72
2022/04/27 10:40:40;;;;;;;10.57;5.40;;;20.70;88.90;;;;;;5124975;27;20066;-73
2022/04/27 10:43:08;;;;;;;7.07;4.68;;;20.60;84.40;;;;;;5120681;27;20028;-74
2022/04/27 10:45:35;;;;;;;9.35;5.32;;;20.60;89.40;;;;;;5124969;27;20038;-73
2022/04/27 10:48:04;;;;;;;6.80;4.65;;;20.80;85.50;;;;;;5121564;27;20019;-73
2022/04/27 10:50:35;;;;;;;7.82;4.20;;;20.60;85.70;;;;;;5130058;27;20030;-73
2022/04/27 10:53:24;;;;;;;7.60;4.95;;;20.70;87.40;;;;;;5128783;27;20027;-73
2022/04/27 10:55:57;;;;;;;8.23;5.00;;;20.90;87.20;;;;;;5125905;27;20101;-74
2022/04/27 10:58:37;;;;;;;9.18;4.72;;;21.00;89.00;;;;;;5130006;27;20516;-73
2022/04/27 11:01:11;;;;;;;6.35;4.38;;;21.20;90.00;;;;;;5116839;27;20584;-72
2022/04/27 11:03:39;;;;;;;7.80;4.20;;;21.20;89.80;;;;;;5131379;27;20106;-73
2022/04/27 11:06:11;;;;;;;6.60;4.50;;;21.30;85.50;;;;;;5129241;27;20522;-73
2022/04/27 11:08:56;;;;;;;6.63;4.32;;;21.30;83.80;;;;;;5131550;27;20521;-72
2022/04/27 11:11:26;;;;;;;7.50;4.53;;;21.20;87.70;;;;;;5128620;27;20030;-73
2022/04/27 11:14:02;;;;;;;6.93;4.70;;;21.50;85.70;;;;;;5132744;27;20015;-74
2022/04/27 11:16:28;;;;;;;8.65;5.00;;;21.50;87.00;;;;;;5122802;27;20028;-72
2022/04/27 11:18:59;;;;;;;7.85;4.90;;;21.20;88.60;;;;;;5132950;27;20027;-75
2022/04/27 11:21:30;;;;;;;8.63;5.03;;;21.30;90.10;;;;;;5126490;27;20090;-77
2022/04/27 11:23:59;;;;;;;9.73;6.07;;;21.40;90.00;;;;;;5128781;27;20607;-72
2022/04/27 11:26:25;;;;;;;10.15;5.40;;;21.40;90.70;;;;;;5128295;27;20083;-72
2022/04/27 11:28:53;;;;;;;9.02;5.47;;;21.20;91.40;;;;;;5132269;27;20031;-69
2022/04/27 11:31:22;;;;;;;9.77;5.97;;;21.10;93.20;;;;;;5116705;27;20055;-69
2022/04/27 11:33:48;;;;;;;10.68;6.10;;;21.00;95.80;;;;;;5119073;27;20038;-69
2022/04/27 11:36:24;;;;;;;15.65;6.55;;;21.50;97.20;;;;;;5121448;27;20502;-69
2022/04/27 11:38:51;;;;;;;13.82;6.43;;;21.40;99.40;;;;;;5118557;27;20030;-69
2022/04/27 11:41:23;;;;;;;12.25;6.13;;;21.10;99.90;;;;;;5133014;27;20402;-69
2022/04/27 11:43:54;;;;;;;10.40;5.82;;;21.20;99.90;;;;;;5117280;27;20027;-69
2022/04/27 11:46:35;;;;;;;12.40;6.13;;;21.20;99.90;;;;;;5133378;27;20421;-69
2022/04/27 11:49:00;;;;;;;12.52;5.05;;;21.20;99.90;;;;;;5117473;27;20020;-69
2022/04/27 11:51:26;;;;;;;11.93;5.60;;;21.30;99.90;;;;;;5130842;27;20038;-69
2022/04/27 11:53:52;;;;;;;11.68;5.38;;;21.40;99.90;;;;;;5132010;27;20047;-69
2022/04/27 11:56:19;;;;;;;11.07;5.10;;;21.30;99.90;;;;;;5122372;27;20041;-69
2022/04/27 11:58:45;;;;;;;10.10;5.10;;;21.20;99.90;;;;;;5116538;27;20023;-69
2022/04/27 12:01:22;;;;;;;10.75;5.10;;;21.40;99.90;;;;;;5117661;27;20030;-68
2022/04/27 12:03:51;;;;;;;11.57;5.40;;;21.30;99.90;;;;;;5125518;27;20015;-70
2022/04/27 12:06:21;;;;;;;9.48;4.75;;;21.40;99.90;;;;;;5121590;27;20035;-70
2022/04/27 12:08:47;;;;;;;11.10;5.45;;;21.30;99.90;;;;;;5108924;27;20489;-70
2022/04/27 12:11:23;;;;;;;10.90;5.68;;;21.30;99.90;;;;;;5117228;27;20019;-70
2022/04/27 12:13:54;;;;;;;11.38;5.40;;;21.20;99.40;;;;;;5128132;27;20604;-70
2022/04/27 12:16:28;;;;;;;9.23;5.43;;;20.90;99.90;;;;;;5122730;27;20126;-70
2022/04/27 12:18:54;;;;;;;12.18;5.80;;;21.00;99.90;;;;;;5116113;27;20024;-70
2022/04/27 12:21:25;;;;;;;9.70;5.13;;;21.00;99.90;;;;;;5115232;27;20036;-71
2022/04/27 12:23:52;;;;;;;9.50;5.43;;;20.90;99.90;;;;;;5117198;27;20027;-71
2022/04/27 12:26:18;;;;;;;10.10;4.82;;;20.90;99.90;;;;;;5118109;27;20023;-70
2022/04/27 12:28:49;;;;;;;12.88;5.45;;;21.30;99.90;;;;;;5107386;28;20039;-70
2022/04/27 12:31:16;;;;;;;9.27;4.78;;;21.30;99.90;;;;;;5111617;28;20080;-70
2022/04/27 12:33:48;;;;;;;10.40;5.20;;;21.30;99.90;;;;;;5108800;28;20023;-70
2022/04/27 12:39:13;;;;;;;9.32;5.13;;;21.10;99.90;;;;;;5106931;28;20041;-70
2022/04/27 12:41:44;;;;;;;11.10;4.75;;;21.20;99.90;;;;;;5108401;28;20089;-70
2022/04/27 12:44:18;;;;;;;11.00;5.00;;;20.80;99.90;;;;;;5107893;28;20498;-70
2022/04/27 12:46:56;;;;;;;10.02;4.63;;;20.90;99.90;;;;;;5106896;28;20023;-70
2022/04/27 12:49:30;;;;;;;8.48;4.28;;;21.00;99.90;;;;;;5108698;28;20024;-69
2022/04/27 12:52:03;;;;;;;11.48;4.55;;;21.20;99.90;;;;;;5109603;28;20036;-70
2022/04/27 12:54:33;;;;;;;11.77;4.47;;;21.30;99.90;;;;;;5110279;28;20039;-70
2022/04/27 12:57:00;;;;;;;11.93;4.78;;;21.20;99.90;;;;;;5109403;28;20043;-70
2022/04/27 12:59:25;;;;;;;8.57;4.03;;;20.90;99.90;;;;;;5107917;28;20047;-71
2022/04/27 13:01:58;;;;;;;7.80;4.05;;;21.10;99.90;;;;;;5108490;28;20059;-71
2022/04/27 13:04:24;;;;;;;11.77;4.07;;;21.10;99.90;;;;;;5109715;28;20106;-71
2022/04/27 13:06:51;;;;;;;11.85;4.22;;;21.00;99.90;;;;;;5109681;28;20526;-70
2022/04/27 13:12:01;;;;;;;;;;;21.10;99.90;;;;;;5108351;28;20414;-71
2022/04/27 13:14:27;;;;;;;10.63;4.47;;;21.10;99.90;;;;;;5107899;28;19904;-70